createdAt,value
2023-02-02T00:00:18.728Z,16.89
2023-02-02T00:01:18.146Z,15.30
2023-02-02T00:02:18.074Z,17
2023-02-02T00:03:18.059Z,11.19
2023-02-02T00:04:18.114Z,14.60
2023-02-02T00:05:18.108Z,16.39
2023-02-02T00:06:17.911Z,15.89
2023-02-02T00:07:18.314Z,18.29
2023-02-02T00:08:17.887Z,14.5
2023-02-02T00:09:18.202Z,16.60
2023-02-02T00:10:18.292Z,15.89
2023-02-02T00:11:17.636Z,13.19
2023-02-02T00:12:17.972Z,13
2023-02-02T00:13:18.035Z,13.69
2023-02-02T00:14:17.736Z,17.20
2023-02-02T00:15:18.702Z,14.69
2023-02-02T00:16:18.247Z,15.80
2023-02-02T00:17:17.853Z,11.5
2023-02-02T00:18:18.252Z,17.89
2023-02-02T00:19:17.999Z,16.79
2023-02-02T00:20:18.270Z,18.29
2023-02-02T00:21:18.286Z,14.10
2023-02-02T00:23:17.648Z,14.69
2023-02-02T00:24:18.178Z,16.89
2023-02-02T00:25:18.224Z,17.29
2023-02-02T00:26:17.922Z,13.89
2023-02-02T00:27:18.704Z,14.69
2023-02-02T00:28:17.901Z,14.60
2023-02-02T00:29:17.615Z,12.89
2023-02-02T00:30:18.712Z,15.19
2023-02-02T00:31:18.014Z,15.10
2023-02-02T00:32:18.246Z,12.19
2023-02-02T00:33:17.468Z,16.39
2023-02-02T00:34:17.668Z,14.39
2023-02-02T00:35:18.398Z,15.5
2023-02-02T00:36:17.928Z,18
2023-02-02T00:37:17.531Z,15.30
2023-02-02T00:38:17.819Z,13.80
2023-02-02T00:39:18.202Z,18.20
2023-02-02T00:40:17.884Z,16.10
2023-02-02T00:41:18.198Z,14.89
2023-02-02T00:42:17.747Z,16.60
2023-02-02T00:43:18.190Z,15.60
2023-02-02T00:44:17.786Z,15.39
2023-02-02T00:45:18.928Z,12.89
2023-02-02T00:46:17.950Z,17.60
2023-02-02T00:47:17.979Z,15.19
2023-02-02T00:48:18.462Z,12.30
2023-02-02T00:49:18.334Z,14.69
2023-02-02T00:50:18.122Z,15.10
2023-02-02T00:51:18.027Z,14.10
2023-02-02T00:52:18.092Z,15.80
2023-02-02T00:53:17.926Z,15.10
2023-02-02T00:54:18.651Z,14.80
2023-02-02T00:55:18.537Z,17.60
2023-02-02T00:56:18.264Z,16.5
2023-02-02T00:57:18.168Z,16.89
2023-02-02T00:58:18.279Z,14.5
2023-02-02T00:59:17.772Z,14
2023-02-02T01:00:19.799Z,14.30
2023-02-02T01:01:20.348Z,17.20
2023-02-02T01:02:18.614Z,13.60
2023-02-02T01:03:18.207Z,16.79
2023-02-02T01:04:17.921Z,15.30
2023-02-02T01:05:17.811Z,14.60
2023-02-02T01:06:17.919Z,12.80
2023-02-02T01:07:18.399Z,15.30
2023-02-02T01:08:17.775Z,14.89
2023-02-02T01:09:18.137Z,18
2023-02-02T01:10:18.089Z,13
2023-02-02T01:11:17.608Z,15.5
2023-02-02T01:12:17.963Z,13.69
2023-02-02T01:13:17.997Z,16.39
2023-02-02T01:14:17.652Z,15.30
2023-02-02T01:15:18.258Z,15.80
2023-02-02T01:16:18.011Z,15.39
2023-02-02T01:17:18.056Z,13.30
2023-02-02T01:18:18.666Z,16.39
2023-02-02T01:19:18.260Z,13.69
2023-02-02T01:20:18.437Z,14.69
2023-02-02T01:21:18.123Z,11.80
2023-02-02T01:22:18.019Z,14.89
2023-02-02T01:23:17.834Z,13.69
2023-02-02T01:24:18.525Z,13.80
2023-02-02T01:25:18.404Z,18.60
2023-02-02T01:26:17.968Z,13.5
2023-02-02T01:27:18.160Z,17.60
2023-02-02T01:28:18.123Z,14.89
2023-02-02T01:29:18.502Z,13.19
2023-02-02T01:30:17.749Z,12
2023-02-02T01:31:17.096Z,12.39
2023-02-02T01:32:17.865Z,13.89
2023-02-02T01:33:17.968Z,11.89
2023-02-02T01:34:18.313Z,14.19
2023-02-02T01:35:17.424Z,11.60
2023-02-02T01:36:17.776Z,13.80
2023-02-02T01:37:17.837Z,16.79
2023-02-02T01:38:17.669Z,11.10
2023-02-02T01:39:17.538Z,12.80
2023-02-02T01:40:18.592Z,15
2023-02-02T01:41:18.326Z,11.89
2023-02-02T01:42:17.914Z,14.30
2023-02-02T01:43:18.104Z,11.80
2023-02-02T01:44:17.767Z,13.69
2023-02-02T01:45:18.194Z,11.30
2023-02-02T01:46:22.733Z,13.30
2023-02-02T01:47:18.140Z,11.5
2023-02-02T01:48:18.461Z,12.89
2023-02-02T01:49:18.228Z,13.89
2023-02-02T01:50:17.991Z,15.89
2023-02-02T01:51:18.139Z,12
2023-02-02T01:52:18.337Z,13.5
2023-02-02T01:53:17.926Z,15.10
2023-02-02T01:54:18.277Z,12.10
2023-02-02T01:55:17.673Z,13.80
2023-02-02T01:56:17.695Z,14.69
2023-02-02T01:57:17.853Z,13.10
2023-02-02T01:58:18.272Z,13.19
2023-02-02T01:59:17.958Z,16.39
2023-02-02T02:00:19.505Z,12.69
2023-02-02T02:02:32.177Z,17.20
2023-02-02T02:03:18.559Z,11.30
2023-02-02T02:04:18.520Z,17.5
2023-02-02T02:05:18.159Z,13.39
2023-02-02T02:06:18.382Z,15.89
2023-02-02T02:07:17.786Z,15.5
2023-02-02T02:08:18.173Z,13.10
2023-02-02T02:09:17.771Z,14.80
2023-02-02T02:10:18.134Z,16.89
2023-02-02T02:11:17.723Z,14.60
2023-02-02T02:12:18.113Z,15.89
2023-02-02T02:13:17.823Z,12.89
2023-02-02T02:14:18.098Z,12.60
2023-02-02T02:15:18.077Z,13.80
2023-02-02T02:16:18.365Z,18.89
2023-02-02T02:17:17.704Z,15.80
2023-02-02T02:18:18.210Z,13.60
2023-02-02T02:19:17.582Z,14.60
2023-02-02T02:20:18.110Z,14.30
2023-02-02T02:21:17.697Z,15.60
2023-02-02T02:22:18.163Z,13.89
2023-02-02T02:23:18.143Z,14.19
2023-02-02T02:24:18.586Z,14.39
2023-02-02T02:25:18.747Z,13.60
2023-02-02T02:26:18.180Z,14.30
2023-02-02T02:27:18.476Z,15
2023-02-02T02:29:18.474Z,14.30
2023-02-02T02:30:18.118Z,13.10
2023-02-02T02:31:18.340Z,16.39
2023-02-02T02:32:18.137Z,16.70
2023-02-02T02:33:18.394Z,13.10
2023-02-02T02:34:17.714Z,14
2023-02-02T02:35:18.024Z,15.30
2023-02-02T02:36:17.476Z,13.10
2023-02-02T02:37:17.788Z,14.39
2023-02-02T02:38:18.134Z,17.79
2023-02-02T02:39:18.367Z,14.89
2023-02-02T02:40:17.571Z,14
2023-02-02T02:41:18.188Z,12.69
2023-02-02T02:42:17.555Z,11.80
2023-02-02T02:43:17.692Z,15.80
2023-02-02T02:44:18.011Z,12.80
2023-02-02T02:45:18.561Z,17
2023-02-02T02:46:17.988Z,15.10
2023-02-02T02:47:17.573Z,16.89
2023-02-02T02:48:18.014Z,14.89
2023-02-02T02:49:18.122Z,13.69
2023-02-02T02:50:17.440Z,19.10
2023-02-02T02:51:17.607Z,16.39
2023-02-02T02:52:17.716Z,13.80
2023-02-02T02:53:17.542Z,15
2023-02-02T02:54:17.512Z,15.69
2023-02-02T02:55:17.526Z,13
2023-02-02T02:56:17.858Z,14.30
2023-02-02T02:57:17.760Z,16.5
2023-02-02T02:58:18.088Z,16.89
2023-02-02T02:59:18.365Z,15.19
2023-02-02T03:00:18.376Z,15.10
2023-02-02T03:01:17.718Z,16.60
2023-02-02T03:02:17.911Z,12.89
2023-02-02T03:03:17.446Z,14.60
2023-02-02T03:04:17.627Z,13.69
2023-02-02T03:05:18.279Z,16
2023-02-02T03:06:17.413Z,16.39
2023-02-02T03:07:17.617Z,15.10
2023-02-02T03:08:17.798Z,15.39
2023-02-02T03:09:17.617Z,14.19
2023-02-02T03:10:17.825Z,15.39
2023-02-02T03:11:18.424Z,13.80
2023-02-02T03:12:17.801Z,15.10
2023-02-02T03:13:17.954Z,16.5
2023-02-02T03:14:17.957Z,12.30
2023-02-02T03:15:18.157Z,15.69
2023-02-02T03:16:17.868Z,16.60
2023-02-02T03:17:17.401Z,13.60
2023-02-02T03:18:17.762Z,16.29
2023-02-02T03:19:17.843Z,13.5
2023-02-02T03:20:18.034Z,13.60
2023-02-02T03:22:18.280Z,15.10
2023-02-02T03:23:17.927Z,12.39
2023-02-02T03:24:17.865Z,14.5
2023-02-02T03:25:17.459Z,13.19
2023-02-02T03:26:17.566Z,18.20
2023-02-02T03:27:17.831Z,16
2023-02-02T03:28:18.083Z,14.19
2023-02-02T03:29:18.316Z,12
2023-02-02T03:30:18.634Z,14.69
2023-02-02T03:31:18.009Z,12.89
2023-02-02T03:32:18.420Z,17
2023-02-02T03:33:18.244Z,13.80
2023-02-02T03:34:17.440Z,14.69
2023-02-02T03:35:18.137Z,13.19
2023-02-02T03:36:18.215Z,14.60
2023-02-02T03:37:17.806Z,12.5
2023-02-02T03:38:18.374Z,16.20
2023-02-02T03:39:17.319Z,13.80
2023-02-02T03:40:17.520Z,14.60
2023-02-02T03:41:17.786Z,13
2023-02-02T03:42:17.688Z,11.19
2023-02-02T03:43:17.287Z,14.80
2023-02-02T03:44:17.787Z,12.80
2023-02-02T03:45:18.101Z,13.5
2023-02-02T03:46:17.738Z,15.19
2023-02-02T03:47:18.328Z,15.30
2023-02-02T03:48:18.474Z,13.39
2023-02-02T03:49:17.695Z,14.30
2023-02-02T03:50:18.372Z,15.69
2023-02-02T03:52:18.119Z,14.60
2023-02-02T03:53:17.746Z,15.5
2023-02-02T03:54:18.215Z,15.89
2023-02-02T03:55:18.221Z,13.19
2023-02-02T03:56:17.782Z,13.69
2023-02-02T03:57:17.916Z,14.10
2023-02-02T03:58:18.261Z,13.30
2023-02-02T03:59:17.642Z,15
2023-02-02T04:00:18.677Z,14
2023-02-02T04:01:18.242Z,16.70
2023-02-02T04:02:17.805Z,16.10
2023-02-02T04:03:18.365Z,15.60
2023-02-02T04:04:17.719Z,13.80
2023-02-02T04:05:23.332Z,13.30
2023-02-02T04:06:18.007Z,16
2023-02-02T04:07:23.100Z,13.19
2023-02-02T04:08:18.024Z,13.10
2023-02-02T04:09:18.277Z,14.10
2023-02-02T04:10:17.897Z,12.60
2023-02-02T04:11:18.012Z,15.80
2023-02-02T04:12:18.011Z,11.69
2023-02-02T04:13:18.017Z,16.60
2023-02-02T04:14:17.669Z,11.60
2023-02-02T04:15:18.223Z,14.89
2023-02-02T04:16:18.415Z,14.60
2023-02-02T04:17:18.039Z,14.80
2023-02-02T04:18:18.201Z,13.5
2023-02-02T04:19:18.312Z,11.5
2023-02-02T04:20:18.208Z,15
2023-02-02T04:21:18.245Z,16.10
2023-02-02T04:22:18.404Z,11.69
2023-02-02T04:23:17.930Z,15.80
2023-02-02T04:24:17.955Z,14.19
2023-02-02T04:25:18.409Z,14.60
2023-02-02T04:26:17.734Z,14
2023-02-02T04:27:17.976Z,10.60
2023-02-02T04:28:18.208Z,16
2023-02-02T04:29:18.096Z,13.10
2023-02-02T04:30:18.550Z,14.80
2023-02-02T04:31:17.973Z,13.30
2023-02-02T04:32:18.784Z,13
2023-02-02T04:33:18.100Z,13.19
2023-02-02T04:34:18.297Z,14.10
2023-02-02T04:35:17.885Z,13.30
2023-02-02T04:36:18.055Z,15.5
2023-02-02T04:37:17.664Z,17
2023-02-02T04:38:17.738Z,15.19
2023-02-02T04:39:17.908Z,16
2023-02-02T04:40:18.607Z,16.10
2023-02-02T04:41:17.857Z,18.39
2023-02-02T04:42:18.102Z,14.10
2023-02-02T04:43:18.442Z,15.69
2023-02-02T04:44:18.269Z,13.89
2023-02-02T04:45:18.185Z,15
2023-02-02T04:46:17.917Z,14.30
2023-02-02T04:47:18.434Z,13.80
2023-02-02T04:48:18.582Z,14.5
2023-02-02T04:49:18.303Z,13.19
2023-02-02T04:50:18.400Z,13.69
2023-02-02T04:51:18.203Z,15.69
2023-02-02T04:52:18.340Z,14.89
2023-02-02T04:53:17.912Z,12.89
2023-02-02T04:54:18.580Z,17
2023-02-02T04:55:18.739Z,15
2023-02-02T04:56:18.776Z,15.69
2023-02-02T04:57:18.562Z,14.60
2023-02-02T04:58:18.384Z,19
2023-02-02T04:59:18.830Z,14.30
2023-02-02T05:00:19.869Z,12.19
2023-02-02T05:01:18.862Z,14.39
2023-02-02T05:02:19.135Z,14.30
2023-02-02T05:03:18.353Z,15.39
2023-02-02T05:04:18.692Z,14.39
2023-02-02T05:05:18.560Z,12.30
2023-02-02T05:06:18.370Z,12.80
2023-02-02T05:07:18.415Z,17.10
2023-02-02T05:08:19.146Z,14.60
2023-02-02T05:09:18.903Z,12
2023-02-02T05:10:19.484Z,15
2023-02-02T05:11:19.293Z,14.60
2023-02-02T05:12:18.659Z,15.10
2023-02-02T05:13:18.559Z,14.10
2023-02-02T05:14:19.237Z,13.69
2023-02-02T05:15:19.004Z,14.60
2023-02-02T05:16:18.815Z,16.5
2023-02-02T05:17:18.801Z,13.39
2023-02-02T05:18:18.900Z,14.89
2023-02-02T05:19:18.707Z,14.69
2023-02-02T05:20:18.755Z,12.30
2023-02-02T05:21:18.271Z,18.10
2023-02-02T05:22:18.350Z,12.10
2023-02-02T05:23:18.059Z,16.29
2023-02-02T05:24:18.484Z,15.30
2023-02-02T05:25:18.995Z,15.60
2023-02-02T05:26:18.595Z,17.5
2023-02-02T05:27:18.176Z,14.39
2023-02-02T05:28:18.245Z,13.19
2023-02-02T05:29:17.946Z,15.89
2023-02-02T05:30:18.438Z,12.19
2023-02-02T05:31:18.280Z,14
2023-02-02T05:32:18.027Z,16
2023-02-02T05:33:18.326Z,11.39
2023-02-02T05:34:17.983Z,16.10
2023-02-02T05:35:18.517Z,14.39
2023-02-02T05:36:18.303Z,16.29
2023-02-02T05:37:18.782Z,19.10
2023-02-02T05:38:17.889Z,13.10
2023-02-02T05:39:18.640Z,14.69
2023-02-02T05:40:18.512Z,13.19
2023-02-02T05:41:18.110Z,14.5
2023-02-02T05:42:17.601Z,14.10
2023-02-02T05:43:19.366Z,12.19
2023-02-02T05:44:18.066Z,10.80
2023-02-02T05:45:18.681Z,12.89
2023-02-02T05:46:18.244Z,13.80
2023-02-02T05:47:18.443Z,14.19
2023-02-02T05:48:18.129Z,13.19
2023-02-02T05:49:18.239Z,14.69
2023-02-02T05:50:18.285Z,11.39
2023-02-02T05:51:17.970Z,9.699
2023-02-02T05:52:18.518Z,12.10
2023-02-02T05:53:18.343Z,10.5
2023-02-02T05:54:18.253Z,13.5
2023-02-02T05:55:18.075Z,14
2023-02-02T05:56:18.201Z,11.80
2023-02-02T05:57:17.990Z,13.39
2023-02-02T05:58:18.285Z,11.5
2023-02-02T05:59:17.863Z,12
2023-02-02T06:00:19.220Z,12.39
2023-02-02T06:01:18.186Z,12.80
2023-02-02T06:02:18.082Z,12.10
2023-02-02T06:03:18.061Z,11.69
2023-02-02T06:04:18.359Z,13.5
2023-02-02T06:05:18.141Z,14.5
2023-02-02T06:06:18.237Z,14.10
2023-02-02T06:07:17.923Z,12.5
2023-02-02T06:08:18.292Z,14.30
2023-02-02T06:09:18.558Z,15.39
2023-02-02T06:10:18.281Z,12.60
2023-02-02T06:11:18.389Z,13.30
2023-02-02T06:12:17.973Z,14.39
2023-02-02T06:13:18.183Z,14.69
2023-02-02T06:14:18.150Z,14.89
2023-02-02T06:15:18.813Z,13.10
2023-02-02T06:16:18.047Z,14.19
2023-02-02T06:17:18.062Z,13.19
2023-02-02T06:18:18.129Z,14.39
2023-02-02T06:19:18.027Z,10.80
2023-02-02T06:20:21.348Z,11.30
2023-02-02T06:21:18.181Z,12.69
2023-02-02T06:22:17.354Z,12.80
2023-02-02T06:23:18.042Z,10.5
2023-02-02T06:24:18.199Z,12.19
2023-02-02T06:25:18.547Z,10.80
2023-02-02T06:26:18.140Z,9
2023-02-02T06:27:18.076Z,14
2023-02-02T06:28:17.955Z,10.69
2023-02-02T06:29:17.868Z,14.39
2023-02-02T06:30:18.754Z,12.69
2023-02-02T06:31:18.578Z,13.5
2023-02-02T06:32:18.462Z,12
2023-02-02T06:33:18.452Z,13.80
2023-02-02T06:34:18.067Z,14.39
2023-02-02T06:35:18.332Z,14.5
2023-02-02T06:36:18.205Z,14.10
2023-02-02T06:37:18.400Z,11.89
2023-02-02T06:38:18.327Z,11.19
2023-02-02T06:39:18.058Z,13.60
2023-02-02T06:40:17.953Z,11.10
2023-02-02T06:41:18.613Z,9
2023-02-02T06:42:21.611Z,11.89
2023-02-02T06:43:17.783Z,11.60
2023-02-02T06:44:18.695Z,11.10
2023-02-02T06:46:18.093Z,10.69
2023-02-02T06:47:18.320Z,10.5
2023-02-02T06:48:18.659Z,11.30
2023-02-02T06:49:19.647Z,12.10
2023-02-02T06:50:18.509Z,11.30
2023-02-02T06:52:32.469Z,9.300
2023-02-02T06:53:18.423Z,12.60
2023-02-02T06:54:18.287Z,11.30
2023-02-02T06:55:18.694Z,11.19
2023-02-02T06:56:18.327Z,11.5
2023-02-02T06:57:18.163Z,13.10
2023-02-02T06:58:32.184Z,12.30
2023-02-02T06:59:18.550Z,14.19
2023-02-02T07:00:20.644Z,12.10
2023-02-02T07:01:18.599Z,13.10
2023-02-02T07:02:18.651Z,12.10
2023-02-02T07:03:18.092Z,10.80
2023-02-02T07:04:18.222Z,11.89
2023-02-02T07:05:18.123Z,10.30
2023-02-02T07:06:18.049Z,10.80
2023-02-02T07:07:18.354Z,11
2023-02-02T07:08:18.282Z,11.39
2023-02-02T07:09:18.221Z,11.5
2023-02-02T07:11:11.547Z,9.899
2023-02-02T07:11:19.985Z,10.69
2023-02-02T07:12:37.411Z,13.30
2023-02-02T07:13:18.183Z,12.89
2023-02-02T07:14:18.212Z,10.10
2023-02-02T07:15:18.743Z,9.300
2023-02-02T07:16:18.692Z,9.800
2023-02-02T07:17:18.711Z,9.199
2023-02-02T07:18:18.150Z,10.5
2023-02-02T07:19:18.247Z,8.800
2023-02-02T07:20:18.558Z,11.69
2023-02-02T07:21:18.506Z,11.80
2023-02-02T07:22:18.289Z,10.69
2023-02-02T07:23:18.509Z,11.30
2023-02-02T07:24:18.675Z,9.899
2023-02-02T07:25:18.653Z,9.800
2023-02-02T07:26:19.029Z,11.19
2023-02-02T07:27:17.846Z,9
2023-02-02T07:28:18.737Z,9.800
2023-02-02T07:29:18.267Z,9.300
2023-02-02T07:30:18.676Z,10.30
2023-02-02T07:31:17.975Z,9.699
2023-02-02T07:32:18.800Z,8.899
2023-02-02T07:33:18.220Z,9.300
2023-02-02T07:34:17.885Z,10.19
2023-02-02T07:35:18.584Z,9
2023-02-02T07:36:18.564Z,9.5
2023-02-02T07:37:18.383Z,8.399
2023-02-02T07:38:18.180Z,8.899
2023-02-02T07:39:18.157Z,8.199
2023-02-02T07:40:18.329Z,9.699
2023-02-02T07:41:18.322Z,8.899
2023-02-02T07:42:18.472Z,8.699
2023-02-02T07:43:18.482Z,9.5
2023-02-02T07:44:18.887Z,9.100
2023-02-02T07:45:26.783Z,11
2023-02-02T07:46:18.197Z,9.100
2023-02-02T07:47:18.593Z,9
2023-02-02T07:48:18.654Z,12.10
2023-02-02T07:49:18.878Z,10.30
2023-02-02T07:50:19.167Z,10.89
2023-02-02T07:51:18.505Z,12.5
2023-02-02T07:52:18.917Z,9.199
2023-02-02T07:53:18.294Z,11.5
2023-02-02T07:54:18.897Z,9.199
2023-02-02T07:55:18.092Z,8.800
2023-02-02T07:56:18.540Z,11.80
2023-02-02T07:57:18.385Z,11.19
2023-02-02T07:58:19.011Z,12.19
2023-02-02T07:59:19.274Z,10.10
2023-02-02T08:00:20.071Z,8.300
2023-02-02T08:01:19.270Z,10.19
2023-02-02T08:02:19.107Z,10.80
2023-02-02T08:03:18.921Z,8.699
2023-02-02T08:04:20.006Z,9.300
2023-02-02T08:05:19.996Z,11
2023-02-02T08:06:19.280Z,9.899
2023-02-02T08:08:18.899Z,10.10
2023-02-02T08:09:18.803Z,7.900
2023-02-02T08:10:18.659Z,8.600
2023-02-02T08:11:18.866Z,8.399
2023-02-02T08:12:18.981Z,8.300
2023-02-02T08:13:19.622Z,7.300
2023-02-02T08:14:18.903Z,8
2023-02-02T08:15:18.858Z,8.100
2023-02-02T08:16:19.277Z,7.199
2023-02-02T08:17:18.912Z,7.099
2023-02-02T08:18:18.706Z,7.900
2023-02-02T08:19:18.565Z,7.199
2023-02-02T08:20:19.212Z,8.100
2023-02-02T08:21:18.728Z,8
2023-02-02T08:22:20.224Z,8.699
2023-02-02T08:23:18.848Z,8.100
2023-02-02T08:24:19.030Z,6.099
2023-02-02T08:25:19.288Z,8
2023-02-02T08:26:18.501Z,7.800
2023-02-02T08:27:18.412Z,7
2023-02-02T08:28:18.756Z,7.5
2023-02-02T08:29:18.389Z,9.5
2023-02-02T08:30:18.859Z,8.199
2023-02-02T08:31:18.254Z,8.699
2023-02-02T08:32:18.589Z,8.300
2023-02-02T08:33:18.855Z,7.300
2023-02-02T08:34:17.994Z,11
2023-02-02T08:35:18.429Z,9.300
2023-02-02T08:36:18.591Z,10.10
2023-02-02T08:37:18.333Z,8.800
2023-02-02T08:38:18.546Z,12.19
2023-02-02T08:39:15.902Z,9.300
2023-02-02T08:40:18.605Z,9.199
2023-02-02T08:41:17.801Z,8.600
2023-02-02T08:42:17.877Z,10.30
2023-02-02T08:43:18.726Z,9.399
2023-02-02T08:44:18.734Z,9.5
2023-02-02T08:46:01.276Z,7.699
2023-02-02T08:46:25.934Z,9.199
2023-02-02T08:47:18.921Z,8.800
2023-02-02T08:48:19.505Z,8.300
2023-02-02T08:49:18.922Z,12.10
2023-02-02T08:50:19.196Z,8.399
2023-02-02T08:51:19.157Z,8
2023-02-02T08:52:19.408Z,9.699
2023-02-02T08:53:18.718Z,8
2023-02-02T08:54:19.264Z,8.399
2023-02-02T08:55:19.337Z,9.199
2023-02-02T08:56:18.883Z,8.5
2023-02-02T08:57:19.414Z,9
2023-02-02T08:58:18.615Z,10.60
2023-02-02T08:59:18.287Z,11.69
2023-02-02T09:00:19.104Z,9
2023-02-02T09:01:19.420Z,8.899
2023-02-02T09:02:18.425Z,10.89
2023-02-02T09:03:23.992Z,9.100
2023-02-02T09:04:18.678Z,10.10
2023-02-02T09:05:24.367Z,9.600
2023-02-02T09:06:18.286Z,9.399
2023-02-02T09:08:18.088Z,10.19
2023-02-02T09:09:18.101Z,11.5
2023-02-02T09:10:18.358Z,9.199
2023-02-02T09:11:17.815Z,12.80
2023-02-02T09:12:18.607Z,7.900
2023-02-02T09:13:18.405Z,10.5
2023-02-02T09:14:18.172Z,10
2023-02-02T09:15:18.565Z,9.199
2023-02-02T09:16:18.455Z,11.60
2023-02-02T09:17:18.509Z,9.100
2023-02-02T09:18:18.176Z,8.899
2023-02-02T09:19:18.055Z,10
2023-02-02T09:20:20.285Z,8
2023-02-02T09:21:18.367Z,11.30
2023-02-02T09:22:18.203Z,11.10
2023-02-02T09:23:18.480Z,9.600
2023-02-02T09:24:19.441Z,11
2023-02-02T09:25:18.204Z,11.60
2023-02-02T09:26:19.264Z,9.199
2023-02-02T09:27:19.503Z,12.39
2023-02-02T09:28:19.368Z,10.19
2023-02-02T09:29:19.517Z,11
2023-02-02T09:30:20.162Z,12.19
2023-02-02T09:31:19.842Z,11.5
2023-02-02T09:32:18.891Z,9.399
2023-02-02T09:33:18.803Z,9.800
2023-02-02T09:34:19.171Z,8.899
2023-02-02T09:35:19.571Z,8.800
2023-02-02T09:36:19.175Z,9.399
2023-02-02T09:37:19.202Z,11.19
2023-02-02T09:38:18.726Z,10.10
2023-02-02T09:39:19.152Z,13.60
2023-02-02T09:40:18.787Z,11.10
2023-02-02T09:41:18.433Z,11.69
2023-02-02T09:42:18.498Z,9.899
2023-02-02T09:43:18.735Z,9
2023-02-02T09:44:19.328Z,8.399
2023-02-02T09:45:19.607Z,8.899
2023-02-02T09:46:18.820Z,9.800
2023-02-02T09:47:18.436Z,11
2023-02-02T09:48:18.813Z,9.699
2023-02-02T09:49:19.323Z,9.800
2023-02-02T09:50:19.335Z,11
2023-02-02T09:51:18.511Z,10.60
2023-02-02T09:52:18.654Z,10.5
2023-02-02T09:53:19.183Z,9.399
2023-02-02T09:54:19.367Z,9
2023-02-02T09:55:19.519Z,8
2023-02-02T09:56:18.750Z,8.199
2023-02-02T09:57:19.454Z,7.099
2023-02-02T09:58:19.351Z,7.699
2023-02-02T09:59:20.958Z,8.600
2023-02-02T10:00:19.409Z,7
2023-02-02T10:01:19.358Z,8
2023-02-02T10:02:19.182Z,7.800
2023-02-02T10:03:19.374Z,8.100
2023-02-02T10:05:18.744Z,8.899
2023-02-02T10:06:19.443Z,9.399
2023-02-02T10:07:19.096Z,10
2023-02-02T10:08:33.689Z,7.5
2023-02-02T10:09:19.188Z,8.800
2023-02-02T10:10:19.261Z,8.699
2023-02-02T10:11:19.370Z,7.699
2023-02-02T10:12:19.045Z,8.800
2023-02-02T10:13:19.018Z,7.900
2023-02-02T10:14:19.768Z,8.600
2023-02-02T10:15:19.242Z,8.399
2023-02-02T10:16:19.449Z,7.800
2023-02-02T10:17:19.464Z,8.899
2023-02-02T10:18:19.858Z,9.600
2023-02-02T10:19:19.107Z,7.800
2023-02-02T10:20:20.156Z,6.400
2023-02-02T10:21:19.849Z,9.699
2023-02-02T10:22:21.927Z,9.100
2023-02-02T10:23:19.157Z,7.800
2023-02-02T10:24:19.670Z,7.099
2023-02-02T10:25:19.024Z,8.699
2023-02-02T10:26:19.491Z,8.600
2023-02-02T10:27:19.388Z,9.399
2023-02-02T10:28:19.860Z,9.100
2023-02-02T10:29:19.171Z,7.900
2023-02-02T10:30:20.194Z,7.699
2023-02-02T10:31:19.135Z,6.900
2023-02-02T10:32:19.374Z,8.5
2023-02-02T10:33:19.415Z,6.900
2023-02-02T10:34:19.399Z,7.5
2023-02-02T10:35:19.268Z,7.300
2023-02-02T10:36:19.891Z,8.699
2023-02-02T10:37:19.570Z,7.5
2023-02-02T10:38:19.106Z,6.599
2023-02-02T10:39:19.472Z,12.10
2023-02-02T10:40:19.347Z,8.399
2023-02-02T10:41:19.083Z,8.100
2023-02-02T10:42:19.744Z,8.399
2023-02-02T10:43:20.031Z,9.399
2023-02-02T10:44:21.157Z,8.899
2023-02-02T10:45:22.097Z,7.099
2023-02-02T10:46:21.230Z,8.800
2023-02-02T10:47:20.851Z,8.100
2023-02-02T10:48:20.492Z,8.899
2023-02-02T10:49:20.592Z,9.5
2023-02-02T10:50:20.393Z,5.900
2023-02-02T10:51:21.253Z,8.399
2023-02-02T10:52:20.092Z,8.899
2023-02-02T10:53:20.099Z,7.099
2023-02-02T10:54:19.610Z,7.900
2023-02-02T10:55:19.888Z,7.400
2023-02-02T10:56:19.635Z,6.099
2023-02-02T10:57:19.124Z,6.599
2023-02-02T10:58:19.542Z,9.800
2023-02-02T10:59:19.424Z,7.199
2023-02-02T11:00:22.697Z,8.199
2023-02-02T11:01:19.274Z,10.69
2023-02-02T11:02:21.153Z,9.899
2023-02-02T11:03:18.945Z,7.199
2023-02-02T11:04:18.885Z,7.599
2023-02-02T11:05:20.002Z,8.5
2023-02-02T11:06:18.623Z,7.300
2023-02-02T11:07:19.748Z,7.900
2023-02-02T11:08:18.815Z,7.300
2023-02-02T11:09:19.236Z,6.199
2023-02-02T11:10:19.041Z,8.300
2023-02-02T11:11:19.145Z,6.599
2023-02-02T11:12:19.417Z,7.699
2023-02-02T11:13:19.463Z,9.100
2023-02-02T11:14:19.594Z,8.300
2023-02-02T11:15:19.533Z,7.099
2023-02-02T11:16:19.347Z,8.300
2023-02-02T11:17:19.316Z,6.099
2023-02-02T11:18:19.660Z,8.199
2023-02-02T11:19:18.923Z,8.100
2023-02-02T11:20:19.536Z,8.899
2023-02-02T11:21:19.083Z,7.699
2023-02-02T11:22:24.409Z,6
2023-02-02T11:23:19.816Z,7.199
2023-02-02T11:24:24.081Z,8.199
2023-02-02T11:25:19.387Z,7.699
2023-02-02T11:26:19.871Z,7.400
2023-02-02T11:27:19.611Z,7
2023-02-02T11:28:19.567Z,7.099
2023-02-02T11:29:19.057Z,7.300
2023-02-02T11:30:19.910Z,7.099
2023-02-02T11:31:18.937Z,7.400
2023-02-02T11:32:19.510Z,8.699
2023-02-02T11:33:19.308Z,8.100
2023-02-02T11:34:20.707Z,7
2023-02-02T11:35:19.375Z,8.399
2023-02-02T11:36:27.756Z,7.5
2023-02-02T11:37:19.687Z,10.19
2023-02-02T11:38:19.572Z,8.899
2023-02-02T11:39:19.841Z,8.800
2023-02-02T11:40:20.122Z,6.900
2023-02-02T11:41:19.460Z,6.699
2023-02-02T11:42:19.284Z,6.599
2023-02-02T11:43:19.736Z,7.900
2023-02-02T11:44:19.682Z,8.800
2023-02-02T11:45:20.298Z,7.199
2023-02-02T11:46:33.745Z,6.300
2023-02-02T11:47:20.188Z,5.800
2023-02-02T11:48:19.835Z,7.5
2023-02-02T11:49:19.687Z,6.5
2023-02-02T11:50:19.681Z,7.5
2023-02-02T11:51:19.480Z,8.300
2023-02-02T11:52:19.277Z,7.099
2023-02-02T11:54:19.419Z,7.699
2023-02-02T11:55:20.318Z,7
2023-02-02T11:56:20.520Z,8.899
2023-02-02T11:57:20.347Z,9.899
2023-02-02T11:58:19.866Z,10.60
2023-02-02T11:59:21.271Z,7.800
2023-02-02T12:00:21.805Z,7.300
2023-02-02T12:01:20.490Z,9.300
2023-02-02T12:02:21.122Z,7.5
2023-02-02T12:03:20.676Z,9.199
2023-02-02T12:04:20.537Z,10.19
2023-02-02T12:05:20.477Z,6.800
2023-02-02T12:06:19.862Z,8.899
2023-02-02T12:07:19.619Z,10.30
2023-02-02T12:08:20.734Z,9
2023-02-02T12:09:20.558Z,9.399
2023-02-02T12:10:20.293Z,8.399
2023-02-02T12:11:20.179Z,9.300
2023-02-02T12:12:19.467Z,7.699
2023-02-02T12:13:19.635Z,10.19
2023-02-02T12:14:19.598Z,9.699
2023-02-02T12:15:19.974Z,9.399
2023-02-02T12:16:20.226Z,8.699
2023-02-02T12:17:19.643Z,11.5
2023-02-02T12:18:20.062Z,10.10
2023-02-02T12:19:19.944Z,8.800
2023-02-02T12:20:20.162Z,12.19
2023-02-02T12:21:20.221Z,8.699
2023-02-02T12:22:19.626Z,10.69
2023-02-02T12:23:19.592Z,8.300
2023-02-02T12:24:19.525Z,8.800
2023-02-02T12:25:19.461Z,9.300
2023-02-02T12:26:19.672Z,9.800
2023-02-02T12:27:19.760Z,10.80
2023-02-02T12:28:19.589Z,9.899
2023-02-02T12:29:19.502Z,8.800
2023-02-02T12:30:20.217Z,10.39
2023-02-02T12:31:20.097Z,8.100
2023-02-02T12:32:19.849Z,8.199
2023-02-02T12:33:18.912Z,9.100
2023-02-02T12:34:19.692Z,11.60
2023-02-02T12:35:19.221Z,8.800
2023-02-02T12:36:19.480Z,11.19
2023-02-02T12:37:18.910Z,10.30
2023-02-02T12:38:19.347Z,10.39
2023-02-02T12:39:19.712Z,10.80
2023-02-02T12:41:20.269Z,8.899
2023-02-02T12:42:19.852Z,9.800
2023-02-02T12:43:19.624Z,8.800
2023-02-02T12:44:20.181Z,7.699
2023-02-02T12:45:19.744Z,8.699
2023-02-02T12:46:19.434Z,10.5
2023-02-02T12:47:19.042Z,7.800
2023-02-02T12:48:19.127Z,10.39
2023-02-02T12:49:19.516Z,8.300
2023-02-02T12:51:18.534Z,8.199
2023-02-02T12:52:19.513Z,8.899
2023-02-02T12:53:18.684Z,9
2023-02-02T12:54:33.521Z,7.300
2023-02-02T12:55:19.095Z,8.300
2023-02-02T12:56:19.340Z,6.699
2023-02-02T12:57:18.923Z,11.19
2023-02-02T12:58:19.250Z,9
2023-02-02T12:59:20.330Z,8.399
2023-02-02T13:01:19.199Z,7.099
2023-02-02T13:02:19.874Z,9
2023-02-02T13:03:19.135Z,7.300
2023-02-02T13:04:19.188Z,7.699
2023-02-02T13:05:20.461Z,9.399
2023-02-02T13:06:20.399Z,8.100
2023-02-02T13:07:22.539Z,8.199
2023-02-02T13:08:19.709Z,6.400
2023-02-02T13:09:20.052Z,8.699
2023-02-02T13:10:19.408Z,8.800
2023-02-02T13:11:19.094Z,7.800
2023-02-02T13:12:20.330Z,7.300
2023-02-02T13:13:19.389Z,7.699
2023-02-02T13:14:19.376Z,9.399
2023-02-02T13:15:19.500Z,9.100
2023-02-02T13:16:19.910Z,8.5
2023-02-02T13:17:19.379Z,8.100